Montrose Regional Airport
KMTJ : now visible

Airfield :











YOU CAN JOIN US ON...

 
LOGIN :

Register | Disclaimer

   EN    FR    IT 

 









Legend :    VFR   Marginal VFR   IFR   Intensive IFR   Very Intensive IFR
Visi :
Ceiling :
>= 8 km
>= 3000ft
5 to 8 km
1000 to 3000 ft
1500m to 5 km
500 to 1000 ft
800 to 1500m
200 to 500 ft
< 800m
< 200 ft
Symbols :   Thunderstorms  Fog  Heavy snow  Heavy precipitations  Wind > 20 kt







- Airport Elevation : 5759 ft


KMTJ - Montrose Regional

CURRENT METAR :
  • 220653Z AUTO 14006KT 10SM BKN065 OVC075 06/02 A2967 RMK AO2 SLP007 T00560022 401280028

EXPIRED METARs :
  • 220553Z AUTO 14007KT 10SM BKN050 OVC070 06/03 A2967 RMK AO2 RAE05 SLP007 P0000 60000 T00610028 10106 20056 51006
  • 220453Z AUTO 12007KT 10SM -RA FEW034 BKN044 OVC055 06/03 A2967 RMK AO2 RAB13E26B49 SLP008 P0000 T00610028

TAF KMTJ
Valid from the 22 at 06:00 until the 23 at 06:00 UTC


220528Z 2206/2306 12007KT P6SM -RA VCSH BKN045 OVC060
FM221000 12005KT P6SM VCSH SCT045 BKN070
FM221600 21005KT P6SM VCSH SCT045 BKN070
FM221700 26006KT P6SM SCT045 BKN060
KZDV FIR / North America



MET'MAP, your aeronautical weather chart ! - Copyright ORBIFLY December 2007 - Disclaimer

ORBIFLY MET'MAP TEAM :

Programming & Development : Alexandra Zaïnal
Concept & Development : Baudouin d'Aumeries
Co-Development & Prog : Marc-Olivier Méhu
Technical & hardware support : Manuel Goepfert

Contact : metmap@orbifly.com




SOURCES & CREDITS :

   NOAA       Earth
Advisory